sensor_id;sensor_type;location;lat;lon;timestamp;pressure;altitude;pressure_sealevel;temperature;humidity
10688;BME280;5392;42.688;23.298;2024-02-21T00:00:35;95522.78;;;5.12;74.56
10688;BME280;5392;42.688;23.298;2024-02-21T00:03:00;95519.47;;;4.94;75.44
10688;BME280;5392;42.688;23.298;2024-02-21T00:05:27;95522.38;;;4.99;75.60
10688;BME280;5392;42.688;23.298;2024-02-21T00:07:53;95526.13;;;4.87;75.83
10688;BME280;5392;42.688;23.298;2024-02-21T00:10:18;95525.06;;;4.72;75.81
10688;BME280;5392;42.688;23.298;2024-02-21T00:12:44;95524.19;;;4.81;75.98
10688;BME280;5392;42.688;23.298;2024-02-21T00:15:09;95523.22;;;4.82;75.70
10688;BME280;5392;42.688;23.298;2024-02-21T00:17:35;95525.03;;;4.90;75.94
10688;BME280;5392;42.688;23.298;2024-02-21T00:20:00;95522.72;;;4.79;75.92
10688;BME280;5392;42.688;23.298;2024-02-21T00:22:26;95520.59;;;4.74;76.03
10688;BME280;5392;42.688;23.298;2024-02-21T00:24:54;95516.03;;;4.60;76.49
10688;BME280;5392;42.688;23.298;2024-02-21T00:27:19;95518.56;;;4.60;76.65
10688;BME280;5392;42.688;23.298;2024-02-21T00:29:45;95520.31;;;4.77;76.07
10688;BME280;5392;42.688;23.298;2024-02-21T00:32:10;95518.22;;;4.73;76.50
10688;BME280;5392;42.688;23.298;2024-02-21T00:34:36;95512.94;;;4.74;76.46
10688;BME280;5392;42.688;23.298;2024-02-21T00:37:01;95521.06;;;4.70;76.74
10688;BME280;5392;42.688;23.298;2024-02-21T00:39:27;95516.75;;;4.70;76.36
10688;BME280;5392;42.688;23.298;2024-02-21T00:41:52;95516.97;;;4.77;75.92
10688;BME280;5392;42.688;23.298;2024-02-21T00:44:18;95507.56;;;4.77;76.49
10688;BME280;5392;42.688;23.298;2024-02-21T00:46:44;95514.00;;;4.89;75.63
10688;BME280;5392;42.688;23.298;2024-02-21T00:49:09;95510.88;;;4.95;75.74
10688;BME280;5392;42.688;23.298;2024-02-21T00:51:35;95510.34;;;4.92;75.45
10688;BME280;5392;42.688;23.298;2024-02-21T00:54:00;95501.88;;;4.91;75.98
10688;BME280;5392;42.688;23.298;2024-02-21T00:56:26;95502.88;;;4.73;76.33
10688;BME280;5392;42.688;23.298;2024-02-21T00:58:52;95499.81;;;4.69;76.47
10688;BME280;5392;42.688;23.298;2024-02-21T01:01:24;95494.97;;;4.84;75.83
10688;BME280;5392;42.688;23.298;2024-02-21T01:03:50;95487.03;;;4.69;75.72
10688;BME280;5392;42.688;23.298;2024-02-21T01:06:19;95490.78;;;4.75;75.97
10688;BME280;5392;42.688;23.298;2024-02-21T01:08:46;95487.44;;;4.82;75.74
10688;BME280;5392;42.688;23.298;2024-02-21T01:11:13;95478.75;;;4.93;75.77
10688;BME280;5392;42.688;23.298;2024-02-21T01:13:39;95480.00;;;4.89;75.48
10688;BME280;5392;42.688;23.298;2024-02-21T01:16:05;95475.59;;;4.99;75.51
10688;BME280;5392;42.688;23.298;2024-02-21T01:18:31;95481.53;;;5.07;74.50
10688;BME280;5392;42.688;23.298;2024-02-21T01:20:56;95476.28;;;5.09;74.40
10688;BME280;5392;42.688;23.298;2024-02-21T01:23:22;95476.28;;;5.09;74.18
10688;BME280;5392;42.688;23.298;2024-02-21T01:25:47;95482.34;;;5.08;74.79
10688;BME280;5392;42.688;23.298;2024-02-21T01:28:13;95477.59;;;5.13;74.14
10688;BME280;5392;42.688;23.298;2024-02-21T01:30:38;95475.69;;;5.15;73.89
10688;BME280;5392;42.688;23.298;2024-02-21T01:33:04;95468.50;;;5.18;73.79
10688;BME280;5392;42.688;23.298;2024-02-21T01:35:30;95466.31;;;5.24;73.33
10688;BME280;5392;42.688;23.298;2024-02-21T01:37:55;95468.22;;;5.22;73.28
10688;BME280;5392;42.688;23.298;2024-02-21T01:40:21;95463.13;;;5.30;73.54
10688;BME280;5392;42.688;23.298;2024-02-21T01:42:46;95471.75;;;5.29;74.07
10688;BME280;5392;42.688;23.298;2024-02-21T01:45:13;95454.16;;;5.26;73.05
10688;BME280;5392;42.688;23.298;2024-02-21T01:47:39;95459.44;;;5.24;73.55
10688;BME280;5392;42.688;23.298;2024-02-21T01:50:06;95455.72;;;5.18;73.26
10688;BME280;5392;42.688;23.298;2024-02-21T01:52:32;95462.28;;;5.13;74.14
10688;BME280;5392;42.688;23.298;2024-02-21T01:55:00;95455.16;;;4.73;75.50
10688;BME280;5392;42.688;23.298;2024-02-21T01:57:26;95451.69;;;4.82;74.75
10688;BME280;5392;42.688;23.298;2024-02-21T01:59:54;95452.31;;;5.02;74.25
10688;BME280;5392;42.688;23.298;2024-02-21T02:02:19;95458.25;;;4.85;74.25
10688;BME280;5392;42.688;23.298;2024-02-21T02:04:45;95457.53;;;4.92;74.64
10688;BME280;5392;42.688;23.298;2024-02-21T02:07:11;95457.25;;;5.03;73.46
10688;BME280;5392;42.688;23.298;2024-02-21T02:09:37;95451.31;;;4.95;74.08
10688;BME280;5392;42.688;23.298;2024-02-21T02:12:02;95458.00;;;4.96;73.89
10688;BME280;5392;42.688;23.298;2024-02-21T02:14:28;95456.16;;;5.06;73.05
10688;BME280;5392;42.688;23.298;2024-02-21T02:16:53;95451.50;;;5.01;73.74
10688;BME280;5392;42.688;23.298;2024-02-21T02:19:19;95451.31;;;4.95;73.72
10688;BME280;5392;42.688;23.298;2024-02-21T02:21:46;95450.00;;;4.91;73.83
10688;BME280;5392;42.688;23.298;2024-02-21T02:24:19;95444.09;;;4.90;74.02
10688;BME280;5392;42.688;23.298;2024-02-21T02:26:45;95442.34;;;4.91;73.61
10688;BME280;5392;42.688;23.298;2024-02-21T02:29:10;95437.09;;;4.92;73.55
10688;BME280;5392;42.688;23.298;2024-02-21T02:31:36;95432.47;;;4.70;74.96
10688;BME280;5392;42.688;23.298;2024-02-21T02:34:03;95439.53;;;4.76;74.52
10688;BME280;5392;42.688;23.298;2024-02-21T02:36:32;95434.34;;;4.86;73.68
10688;BME280;5392;42.688;23.298;2024-02-21T02:38:59;95435.72;;;4.80;73.89
10688;BME280;5392;42.688;23.298;2024-02-21T02:41:24;95436.03;;;4.77;74.71
10688;BME280;5392;42.688;23.298;2024-02-21T02:43:50;95433.97;;;4.81;74.87
10688;BME280;5392;42.688;23.298;2024-02-21T02:46:15;95430.81;;;4.87;73.85
10688;BME280;5392;42.688;23.298;2024-02-21T02:48:41;95428.00;;;4.98;74.21
10688;BME280;5392;42.688;23.298;2024-02-21T02:51:06;95438.84;;;5.00;73.54
10688;BME280;5392;42.688;23.298;2024-02-21T02:53:32;95445.31;;;5.12;73.34
10688;BME280;5392;42.688;23.298;2024-02-21T02:55:58;95442.00;;;5.20;72.62
10688;BME280;5392;42.688;23.298;2024-02-21T02:58:23;95441.50;;;5.16;72.58
10688;BME280;5392;42.688;23.298;2024-02-21T03:00:49;95445.34;;;5.20;72.93
10688;BME280;5392;42.688;23.298;2024-02-21T03:03:14;95445.50;;;5.18;73.14
10688;BME280;5392;42.688;23.298;2024-02-21T03:05:40;95440.22;;;5.20;72.91
10688;BME280;5392;42.688;23.298;2024-02-21T03:08:05;95440.72;;;5.15;73.05
10688;BME280;5392;42.688;23.298;2024-02-21T03:10:33;95448.72;;;5.21;72.59
10688;BME280;5392;42.688;23.298;2024-02-21T03:12:58;95445.31;;;5.12;72.67
10688;BME280;5392;42.688;23.298;2024-02-21T03:15:24;95453.63;;;5.14;72.57
10688;BME280;5392;42.688;23.298;2024-02-21T03:17:49;95450.94;;;5.15;73.05
10688;BME280;5392;42.688;23.298;2024-02-21T03:20:15;95458.59;;;5.15;72.54
10688;BME280;5392;42.688;23.298;2024-02-21T03:22:41;95464.75;;;5.05;73.08
10688;BME280;5392;42.688;23.298;2024-02-21T03:25:08;95454.34;;;4.98;73.06
10688;BME280;5392;42.688;23.298;2024-02-21T03:27:34;95461.56;;;5.03;72.99
10688;BME280;5392;42.688;23.298;2024-02-21T03:29:59;95467.69;;;5.18;72.84
10688;BME280;5392;42.688;23.298;2024-02-21T03:32:25;95453.63;;;5.14;72.58
10688;BME280;5392;42.688;23.298;2024-02-21T03:34:51;95472.06;;;5.26;72.53
10688;BME280;5392;42.688;23.298;2024-02-21T03:37:16;95462.19;;;5.31;71.17
10688;BME280;5392;42.688;23.298;2024-02-21T03:39:42;95464.75;;;5.31;71.34
10688;BME280;5392;42.688;23.298;2024-02-21T03:42:07;95468.84;;;5.24;71.47
10688;BME280;5392;42.688;23.298;2024-02-21T03:44:33;95470.44;;;5.25;71.84
10688;BME280;5392;42.688;23.298;2024-02-21T03:46:59;95472.69;;;5.20;71.68
10688;BME280;5392;42.688;23.298;2024-02-21T03:49:26;95471.88;;;5.19;71.65
10688;BME280;5392;42.688;23.298;2024-02-21T03:51:51;95474.25;;;5.21;72.49
10688;BME280;5392;42.688;23.298;2024-02-21T03:54:17;95469.03;;;5.22;71.21
10688;BME280;5392;42.688;23.298;2024-02-21T03:56:43;95464.22;;;5.19;71.72
10688;BME280;5392;42.688;23.298;2024-02-21T03:59:08;95472.31;;;5.14;71.46
10688;BME280;5392;42.688;23.298;2024-02-21T04:01:35;95478.06;;;5.08;72.25
10688;BME280;5392;42.688;23.298;2024-02-21T04:04:01;95471.78;;;5.03;72.41
10688;BME280;5392;42.688;23.298;2024-02-21T04:06:26;95468.13;;;5.05;72.76
10688;BME280;5392;42.688;23.298;2024-02-21T04:08:52;95466.84;;;5.01;72.50
10688;BME280;5392;42.688;23.298;2024-02-21T04:11:17;95466.84;;;5.01;72.89
10688;BME280;5392;42.688;23.298;2024-02-21T04:13:44;95470.97;;;5.02;72.83
10688;BME280;5392;42.688;23.298;2024-02-21T04:16:09;95468.75;;;4.99;72.93
10688;BME280;5392;42.688;23.298;2024-02-21T04:18:35;95463.75;;;4.98;72.04
10688;BME280;5392;42.688;23.298;2024-02-21T04:21:00;95471.13;;;5.01;73.32
10688;BME280;5392;42.688;23.298;2024-02-21T04:23:26;95467.47;;;5.03;72.31
10688;BME280;5392;42.688;23.298;2024-02-21T04:25:51;95466.84;;;5.01;72.97
10688;BME280;5392;42.688;23.298;2024-02-21T04:28:17;95462.81;;;4.99;72.32
10688;BME280;5392;42.688;23.298;2024-02-21T04:30:43;95466.19;;;4.99;72.18
10688;BME280;5392;42.688;23.298;2024-02-21T04:33:08;95468.22;;;4.96;72.78
10688;BME280;5392;42.688;23.298;2024-02-21T04:35:36;95460.88;;;4.93;73.36
10688;BME280;5392;42.688;23.298;2024-02-21T04:38:01;95464.38;;;4.92;72.32
10688;BME280;5392;42.688;23.298;2024-02-21T04:40:27;95467.22;;;4.89;73.03
10688;BME280;5392;42.688;23.298;2024-02-21T04:42:53;95467.78;;;4.75;73.64
10688;BME280;5392;42.688;23.298;2024-02-21T04:45:19;95468.59;;;4.75;73.23
10688;BME280;5392;42.688;23.298;2024-02-21T04:47:44;95469.97;;;4.70;73.34
10688;BME280;5392;42.688;23.298;2024-02-21T04:50:10;95470.25;;;4.67;73.41
10688;BME280;5392;42.688;23.298;2024-02-21T04:52:35;95470.50;;;4.56;74.39
10688;BME280;5392;42.688;23.298;2024-02-21T04:55:01;95460.19;;;4.39;74.59
10688;BME280;5392;42.688;23.298;2024-02-21T04:57:26;95466.09;;;4.40;74.89
10688;BME280;5392;42.688;23.298;2024-02-21T04:59:52;95461.53;;;4.26;75.63
10688;BME280;5392;42.688;23.298;2024-02-21T05:02:17;95463.28;;;4.25;75.76
10688;BME280;5392;42.688;23.298;2024-02-21T05:04:44;95469.69;;;4.29;75.63
10688;BME280;5392;42.688;23.298;2024-02-21T05:07:13;95464.25;;;4.50;74.77
10688;BME280;5392;42.688;23.298;2024-02-21T05:09:38;95463.06;;;4.62;74.33
10688;BME280;5392;42.688;23.298;2024-02-21T05:12:04;95475.25;;;4.68;73.41
10688;BME280;5392;42.688;23.298;2024-02-21T05:14:30;95479.09;;;4.72;73.49
10688;BME280;5392;42.688;23.298;2024-02-21T05:16:55;95479.59;;;4.76;73.25
10688;BME280;5392;42.688;23.298;2024-02-21T05:19:21;95489.75;;;4.68;73.38
10688;BME280;5392;42.688;23.298;2024-02-21T05:21:46;95480.00;;;4.63;73.68
10688;BME280;5392;42.688;23.298;2024-02-21T05:24:12;95484.03;;;4.74;73.17
10688;BME280;5392;42.688;23.298;2024-02-21T05:26:37;95487.69;;;4.71;73.53
10688;BME280;5392;42.688;23.298;2024-02-21T05:29:03;95476.28;;;4.83;72.61
10688;BME280;5392;42.688;23.298;2024-02-21T05:34:16;95483.63;;;5.04;72.17
10688;BME280;5392;42.688;23.298;2024-02-21T05:36:41;95483.28;;;5.07;71.74
10688;BME280;5392;42.688;23.298;2024-02-21T05:39:06;95481.84;;;5.04;71.61
10688;BME280;5392;42.688;23.298;2024-02-21T05:41:32;95475.94;;;5.04;71.84
10688;BME280;5392;42.688;23.298;2024-02-21T05:43:57;95484.75;;;5.09;71.47
10688;BME280;5392;42.688;23.298;2024-02-21T05:46:23;95486.19;;;5.12;72.06
10688;BME280;5392;42.688;23.298;2024-02-21T05:48:48;95489.91;;;5.18;71.27
10688;BME280;5392;42.688;23.298;2024-02-21T05:51:14;95494.41;;;5.24;71.09
10688;BME280;5392;42.688;23.298;2024-02-21T05:53:40;95491.56;;;5.27;71.55
10688;BME280;5392;42.688;23.298;2024-02-21T05:56:10;95494.16;;;5.35;70.96
10688;BME280;5392;42.688;23.298;2024-02-21T05:58:36;95499.56;;;5.32;71.10
10688;BME280;5392;42.688;23.298;2024-02-21T06:01:02;95494.25;;;5.25;71.01
10688;BME280;5392;42.688;23.298;2024-02-21T06:03:28;95506.44;;;5.31;71.10
10688;BME280;5392;42.688;23.298;2024-02-21T06:05:54;95496.16;;;5.57;69.93
10688;BME280;5392;42.688;23.298;2024-02-21T06:08:19;95503.44;;;5.77;68.68
10688;BME280;5392;42.688;23.298;2024-02-21T06:10:45;95508.22;;;5.72;69.26
10688;BME280;5392;42.688;23.298;2024-02-21T06:13:11;95510.78;;;6.22;68.11
10688;BME280;5392;42.688;23.298;2024-02-21T06:15:36;95510.16;;;6.52;66.93
10688;BME280;5392;42.688;23.298;2024-02-21T06:18:02;95508.91;;;6.81;64.91
10688;BME280;5392;42.688;23.298;2024-02-21T06:20:28;95514.19;;;7.58;63.79
10688;BME280;5392;42.688;23.298;2024-02-21T06:22:54;95510.63;;;8.29;60.89
10688;BME280;5392;42.688;23.298;2024-02-21T06:25:19;95513.25;;;9.70;57.61
10688;BME280;5392;42.688;23.298;2024-02-21T06:27:45;95514.34;;;10.25;53.75
10688;BME280;5392;42.688;23.298;2024-02-21T06:30:10;95507.63;;;9.95;53.78
10688;BME280;5392;42.688;23.298;2024-02-21T06:32:36;95511.53;;;9.62;55.57
10688;BME280;5392;42.688;23.298;2024-02-21T06:35:02;95524.59;;;9.17;55.85
10688;BME280;5392;42.688;23.298;2024-02-21T06:37:27;95523.41;;;9.05;56.58
10688;BME280;5392;42.688;23.298;2024-02-21T06:39:53;95527.22;;;9.09;56.82
10688;BME280;5392;42.688;23.298;2024-02-21T06:42:18;95533.13;;;9.76;55.26
10688;BME280;5392;42.688;23.298;2024-02-21T06:44:44;95526.25;;;10.27;53.51
10688;BME280;5392;42.688;23.298;2024-02-21T06:47:10;95535.38;;;10.29;53.06
10688;BME280;5392;42.688;23.298;2024-02-21T06:49:35;95528.38;;;10.08;53.76
10688;BME280;5392;42.688;23.298;2024-02-21T06:52:04;95539.84;;;9.62;53.77
10688;BME280;5392;42.688;23.298;2024-02-21T06:54:30;95538.09;;;9.77;54.77
10688;BME280;5392;42.688;23.298;2024-02-21T06:56:55;95525.56;;;9.74;54.94
10688;BME280;5392;42.688;23.298;2024-02-21T06:59:21;95538.97;;;9.26;55.35
10688;BME280;5392;42.688;23.298;2024-02-21T07:01:52;95540.75;;;9.40;56.03
10688;BME280;5392;42.688;23.298;2024-02-21T07:04:18;95540.31;;;9.36;55.64
10688;BME280;5392;42.688;23.298;2024-02-21T07:06:43;95537.69;;;9.07;56.09
10688;BME280;5392;42.688;23.298;2024-02-21T07:09:09;95542.31;;;9.12;56.98
10688;BME280;5392;42.688;23.298;2024-02-21T07:11:34;95543.03;;;8.83;57.17
10688;BME280;5392;42.688;23.298;2024-02-21T07:14:00;95544.31;;;9.02;56.59
10688;BME280;5392;42.688;23.298;2024-02-21T07:16:25;95538.16;;;9.25;56.79
10688;BME280;5392;42.688;23.298;2024-02-21T07:18:51;95543.50;;;9.38;56.16
10688;BME280;5392;42.688;23.298;2024-02-21T07:21:17;95548.91;;;9.43;56.27
10688;BME280;5392;42.688;23.298;2024-02-21T07:23:42;95543.97;;;9.57;55.31
10688;BME280;5392;42.688;23.298;2024-02-21T07:26:08;95541.56;;;9.55;54.50
10688;BME280;5392;42.688;23.298;2024-02-21T07:28:34;95548.22;;;9.35;55.78
10688;BME280;5392;42.688;23.298;2024-02-21T07:30:59;95554.22;;;9.42;55.24
10688;BME280;5392;42.688;23.298;2024-02-21T07:33:25;95549.44;;;9.02;57.29
10688;BME280;5392;42.688;23.298;2024-02-21T07:35:51;95540.63;;;8.81;57.59
10688;BME280;5392;42.688;23.298;2024-02-21T07:38:16;95546.16;;;8.93;56.86
10688;BME280;5392;42.688;23.298;2024-02-21T07:40:46;95558.06;;;9.09;56.50
10688;BME280;5392;42.688;23.298;2024-02-21T07:43:11;95544.25;;;9.10;57.35
10688;BME280;5392;42.688;23.298;2024-02-21T07:45:37;95552.88;;;9.17;56.37
10688;BME280;5392;42.688;23.298;2024-02-21T07:48:07;95548.81;;;9.37;55.56
10688;BME280;5392;42.688;23.298;2024-02-21T07:50:33;95543.34;;;9.54;55.13
10688;BME280;5392;42.688;23.298;2024-02-21T07:52:58;95541.28;;;9.65;55.74
10688;BME280;5392;42.688;23.298;2024-02-21T07:55:24;95543.44;;;9.61;55.76
10688;BME280;5392;42.688;23.298;2024-02-21T07:57:49;95542.25;;;9.34;55.31
10688;BME280;5392;42.688;23.298;2024-02-21T08:00:15;95539.59;;;9.42;57.04
10688;BME280;5392;42.688;23.298;2024-02-21T08:02:54;95531.34;;;9.47;54.97
10688;BME280;5392;42.688;23.298;2024-02-21T08:05:19;95534.19;;;9.52;55.36
10688;BME280;5392;42.688;23.298;2024-02-21T08:07:45;95531.53;;;9.75;55.88
10688;BME280;5392;42.688;23.298;2024-02-21T08:10:10;95531.16;;;10.85;52.06
10688;BME280;5392;42.688;23.298;2024-02-21T08:12:36;95541.81;;;10.75;51.78
10688;BME280;5392;42.688;23.298;2024-02-21T08:15:02;95535.66;;;10.55;51.81
10688;BME280;5392;42.688;23.298;2024-02-21T08:17:33;95535.34;;;10.86;51.08
10688;BME280;5392;42.688;23.298;2024-02-21T08:19:58;95536.47;;;11.88;49.33
10688;BME280;5392;42.688;23.298;2024-02-21T08:22:24;95532.22;;;12.14;48.00
10688;BME280;5392;42.688;23.298;2024-02-21T08:24:49;95536.38;;;12.76;46.74
10688;BME280;5392;42.688;23.298;2024-02-21T08:27:15;95533.03;;;15.18;40.28
10688;BME280;5392;42.688;23.298;2024-02-21T08:29:40;95530.88;;;15.15;39.46
10688;BME280;5392;42.688;23.298;2024-02-21T08:32:06;95531.59;;;14.35;41.20
10688;BME280;5392;42.688;23.298;2024-02-21T08:34:31;95527.03;;;13.47;43.55
10688;BME280;5392;42.688;23.298;2024-02-21T08:36:59;95526.63;;;13.04;44.07
10688;BME280;5392;42.688;23.298;2024-02-21T08:39:25;95531.75;;;11.98;46.96
10688;BME280;5392;42.688;23.298;2024-02-21T08:41:51;95534.97;;;11.38;48.81
10688;BME280;5392;42.688;23.298;2024-02-21T08:44:16;95528.75;;;11.94;47.38
10688;BME280;5392;42.688;23.298;2024-02-21T08:46:42;95533.88;;;12.35;46.96
10688;BME280;5392;42.688;23.298;2024-02-21T08:49:09;95530.59;;;12.67;45.63
10688;BME280;5392;42.688;23.298;2024-02-21T08:51:35;95530.13;;;12.44;45.93
10688;BME280;5392;42.688;23.298;2024-02-21T08:54:00;95533.81;;;12.15;46.31
10688;BME280;5392;42.688;23.298;2024-02-21T08:56:27;95535.53;;;12.02;47.24
10688;BME280;5392;42.688;23.298;2024-02-21T08:58:52;95538.34;;;12.61;46.51
10688;BME280;5392;42.688;23.298;2024-02-21T09:01:18;95538.66;;;12.38;46.46
10688;BME280;5392;42.688;23.298;2024-02-21T09:03:43;95541.63;;;11.53;48.48
10688;BME280;5392;42.688;23.298;2024-02-21T09:06:10;95542.50;;;11.12;50.38
10688;BME280;5392;42.688;23.298;2024-02-21T09:08:35;95536.69;;;11.03;50.10
10688;BME280;5392;42.688;23.298;2024-02-21T09:11:01;95548.75;;;10.75;50.49
10688;BME280;5392;42.688;23.298;2024-02-21T09:13:27;95544.44;;;10.61;51.24
10688;BME280;5392;42.688;23.298;2024-02-21T09:15:52;95546.72;;;10.70;50.62
10688;BME280;5392;42.688;23.298;2024-02-21T09:18:18;95546.59;;;10.57;50.52
10688;BME280;5392;42.688;23.298;2024-02-21T09:20:43;95543.25;;;10.42;51.73
10688;BME280;5392;42.688;23.298;2024-02-21T09:23:09;95541.31;;;10.44;52.09
10688;BME280;5392;42.688;23.298;2024-02-21T09:25:35;95543.69;;;10.88;50.38
10688;BME280;5392;42.688;23.298;2024-02-21T09:28:01;95545.63;;;11.07;50.74
10688;BME280;5392;42.688;23.298;2024-02-21T09:30:28;95534.75;;;10.84;51.00
10688;BME280;5392;42.688;23.298;2024-02-21T09:32:54;95540.41;;;11.00;50.08
10688;BME280;5392;42.688;23.298;2024-02-21T09:35:19;95541.44;;;11.27;49.69
10688;BME280;5392;42.688;23.298;2024-02-21T09:37:47;95540.13;;;11.38;49.84
10688;BME280;5392;42.688;23.298;2024-02-21T09:40:15;95538.44;;;11.51;49.24
10688;BME280;5392;42.688;23.298;2024-02-21T09:42:41;95539.28;;;11.65;48.47
10688;BME280;5392;42.688;23.298;2024-02-21T09:45:25;95543.53;;;11.73;48.39
10688;BME280;5392;42.688;23.298;2024-02-21T09:50:17;95538.09;;;11.06;48.78
10688;BME280;5392;42.688;23.298;2024-02-21T09:52:44;95534.13;;;11.65;47.72
10688;BME280;5392;42.688;23.298;2024-02-21T09:55:10;95540.59;;;11.20;48.81
10688;BME280;5392;42.688;23.298;2024-02-21T09:57:37;95532.34;;;11.31;48.43
10688;BME280;5392;42.688;23.298;2024-02-21T10:00:04;95525.41;;;11.66;47.85
10688;BME280;5392;42.688;23.298;2024-02-21T10:02:34;95532.75;;;12.03;47.38
10688;BME280;5392;42.688;23.298;2024-02-21T10:04:59;95533.59;;;12.10;46.57
10688;BME280;5392;42.688;23.298;2024-02-21T10:07:25;95520.22;;;11.94;45.96
10688;BME280;5392;42.688;23.298;2024-02-21T10:10:03;95533.22;;;11.17;47.42
10688;BME280;5392;42.688;23.298;2024-02-21T10:12:29;95532.59;;;10.66;49.11
10688;BME280;5392;42.688;23.298;2024-02-21T10:15:01;95518.81;;;10.38;49.39
10688;BME280;5392;42.688;23.298;2024-02-21T10:17:26;95525.22;;;10.42;49.59
10688;BME280;5392;42.688;23.298;2024-02-21T10:19:52;95518.25;;;10.21;49.73
10688;BME280;5392;42.688;23.298;2024-02-21T10:22:17;95515.88;;;10.41;48.62
10688;BME280;5392;42.688;23.298;2024-02-21T10:24:43;95513.91;;;10.22;48.90
10688;BME280;5392;42.688;23.298;2024-02-21T10:27:09;95507.50;;;10.18;48.77
10688;BME280;5392;42.688;23.298;2024-02-21T10:29:36;95501.09;;;10.50;49.50
10688;BME280;5392;42.688;23.298;2024-02-21T10:34:31;95496.28;;;10.25;50.28
10688;BME280;5392;42.688;23.298;2024-02-21T10:37:03;95477.09;;;10.70;48.80
10688;BME280;5392;42.688;23.298;2024-02-21T10:39:33;95472.09;;;11.18;46.99
10688;BME280;5392;42.688;23.298;2024-02-21T10:42:01;95464.56;;;11.57;46.77
10688;BME280;5392;42.688;23.298;2024-02-21T10:44:36;95464.16;;;11.94;45.98
10688;BME280;5392;42.688;23.298;2024-02-21T10:47:08;95458.78;;;11.83;45.57
10688;BME280;5392;42.688;23.298;2024-02-21T10:49:38;95451.31;;;12.14;45.64
10688;BME280;5392;42.688;23.298;2024-02-21T10:52:14;95445.59;;;12.44;44.37
10688;BME280;5392;42.688;23.298;2024-02-21T10:54:47;95446.47;;;11.16;46.39
10688;BME280;5392;42.688;23.298;2024-02-21T10:57:13;95440.16;;;11.59;45.91
10688;BME280;5392;42.688;23.298;2024-02-21T10:59:44;95426.63;;;11.92;44.51
10688;BME280;5392;42.688;23.298;2024-02-21T11:02:10;95436.41;;;12.09;43.91
10688;BME280;5392;42.688;23.298;2024-02-21T11:04:35;95429.41;;;12.10;42.66
10688;BME280;5392;42.688;23.298;2024-02-21T11:07:05;95434.72;;;11.41;43.78
10688;BME280;5392;42.688;23.298;2024-02-21T11:09:31;95434.22;;;11.25;42.46
10688;BME280;5392;42.688;23.298;2024-02-21T11:12:05;95426.78;;;10.81;44.62
10688;BME280;5392;42.688;23.298;2024-02-21T11:14:31;95425.88;;;10.40;45.90
10688;BME280;5392;42.688;23.298;2024-02-21T11:17:17;95419.97;;;10.46;45.04
10688;BME280;5392;42.688;23.298;2024-02-21T11:19:43;95427.66;;;10.39;45.19
10688;BME280;5392;42.688;23.298;2024-02-21T11:22:19;95413.84;;;10.47;44.52
10688;BME280;5392;42.688;23.298;2024-02-21T11:24:47;95419.00;;;10.47;44.55
10688;BME280;5392;42.688;23.298;2024-02-21T11:27:15;95419.81;;;10.26;45.23
10688;BME280;5392;42.688;23.298;2024-02-21T11:29:55;95414.66;;;10.54;45.26
10688;BME280;5392;42.688;23.298;2024-02-21T11:32:21;95413.56;;;10.90;44.82
10688;BME280;5392;42.688;23.298;2024-02-21T11:35:20;95415.06;;;10.51;45.35
10688;BME280;5392;42.688;23.298;2024-02-21T11:37:38;95403.44;;;10.89;43.26
10688;BME280;5392;42.688;23.298;2024-02-21T11:40:05;95409.94;;;10.85;43.36
10688;BME280;5392;42.688;23.298;2024-02-21T11:42:35;95405.72;;;11.46;42.33
10688;BME280;5392;42.688;23.298;2024-02-21T11:45:01;95409.91;;;11.06;43.26
10688;BME280;5392;42.688;23.298;2024-02-21T11:47:28;95402.91;;;11.34;42.50
10688;BME280;5392;42.688;23.298;2024-02-21T11:49:54;95397.06;;;11.60;42.09
10688;BME280;5392;42.688;23.298;2024-02-21T11:52:22;95395.56;;;11.79;41.56
10688;BME280;5392;42.688;23.298;2024-02-21T11:54:50;95394.75;;;11.72;42.17
10688;BME280;5392;42.688;23.298;2024-02-21T11:57:17;95394.19;;;11.83;41.58
10688;BME280;5392;42.688;23.298;2024-02-21T11:59:44;95391.53;;;11.22;42.11
10688;BME280;5392;42.688;23.298;2024-02-21T12:02:10;95392.81;;;11.39;42.30
10688;BME280;5392;42.688;23.298;2024-02-21T12:04:35;95392.94;;;10.90;44.72
10688;BME280;5392;42.688;23.298;2024-02-21T12:07:01;95392.53;;;11.28;43.72
10688;BME280;5392;42.688;23.298;2024-02-21T12:09:29;95384.06;;;10.99;45.27
10688;BME280;5392;42.688;23.298;2024-02-21T12:11:58;95386.09;;;10.76;45.72
10688;BME280;5392;42.688;23.298;2024-02-21T12:14:25;95391.53;;;10.88;44.78
10688;BME280;5392;42.688;23.298;2024-02-21T12:16:51;95382.81;;;10.89;45.48
10688;BME280;5392;42.688;23.298;2024-02-21T12:19:16;95386.13;;;10.83;45.45
10688;BME280;5392;42.688;23.298;2024-02-21T12:21:42;95383.06;;;10.66;45.27
10688;BME280;5392;42.688;23.298;2024-02-21T12:24:21;95377.81;;;10.53;44.70
10688;BME280;5392;42.688;23.298;2024-02-21T12:26:48;95374.69;;;10.58;44.05
10688;BME280;5392;42.688;23.298;2024-02-21T12:29:13;95376.56;;;10.49;44.44
10688;BME280;5392;42.688;23.298;2024-02-21T12:31:39;95370.34;;;10.65;43.93
10688;BME280;5392;42.688;23.298;2024-02-21T12:34:05;95370.00;;;10.74;45.15
10688;BME280;5392;42.688;23.298;2024-02-21T12:36:31;95367.09;;;10.84;44.82
10688;BME280;5392;42.688;23.298;2024-02-21T12:38:57;95368.31;;;10.60;43.53
10688;BME280;5392;42.688;23.298;2024-02-21T12:41:23;95368.59;;;10.72;44.06
10688;BME280;5392;42.688;23.298;2024-02-21T12:43:51;95367.00;;;10.64;44.30
10688;BME280;5392;42.688;23.298;2024-02-21T12:46:16;95364.34;;;10.85;43.90
10688;BME280;5392;42.688;23.298;2024-02-21T12:48:42;95356.31;;;10.74;45.91
10688;BME280;5392;42.688;23.298;2024-02-21T12:51:08;95362.03;;;10.97;44.63
10688;BME280;5392;42.688;23.298;2024-02-21T12:53:33;95364.91;;;11.15;44.92
10688;BME280;5392;42.688;23.298;2024-02-21T12:55:59;95349.75;;;11.06;46.19
10688;BME280;5392;42.688;23.298;2024-02-21T12:58:24;95360.38;;;11.24;46.90
10688;BME280;5392;42.688;23.298;2024-02-21T13:00:50;95351.00;;;10.75;48.98
10688;BME280;5392;42.688;23.298;2024-02-21T13:03:15;95353.53;;;10.41;49.53
10688;BME280;5392;42.688;23.298;2024-02-21T13:05:41;95351.16;;;10.18;49.06
10688;BME280;5392;42.688;23.298;2024-02-21T13:08:06;95337.41;;;10.11;49.25
10688;BME280;5392;42.688;23.298;2024-02-21T13:10:33;95343.06;;;10.21;49.52